sensor_id;sensor_type;location;lat;lon;timestamp;P1;durP1;ratioP1;P2;durP2;ratioP2
57824;SDS011;43912;44.188;21.094;2023-03-01T00:02:00;43.25;;;30.60;;
57824;SDS011;43912;44.188;21.094;2023-03-01T00:04:26;44.35;;;31.15;;
57824;SDS011;43912;44.188;21.094;2023-03-01T00:06:52;45.55;;;31.55;;
57824;SDS011;43912;44.188;21.094;2023-03-01T00:09:19;49.92;;;33.28;;
57824;SDS011;43912;44.188;21.094;2023-03-01T00:15:07;60.15;;;38.20;;
57824;SDS011;43912;44.188;21.094;2023-03-01T00:17:33;105.63;;;63.83;;
57824;SDS011;43912;44.188;21.094;2023-03-01T00:19:59;80.60;;;47.97;;
57824;SDS011;43912;44.188;21.094;2023-03-01T00:22:26;76.50;;;47.55;;
57824;SDS011;43912;44.188;21.094;2023-03-01T00:24:53;70.93;;;45.10;;
57824;SDS011;43912;44.188;21.094;2023-03-01T00:27:19;67.75;;;44.30;;
57824;SDS011;43912;44.188;21.094;2023-03-01T00:29:45;57.17;;;39.17;;
57824;SDS011;43912;44.188;21.094;2023-03-01T00:32:11;44.30;;;32.70;;
57824;SDS011;43912;44.188;21.094;2023-03-01T00:34:37;48.40;;;32.45;;
57824;SDS011;43912;44.188;21.094;2023-03-01T00:37:03;49.38;;;34.08;;
57824;SDS011;43912;44.188;21.094;2023-03-01T00:39:30;57.13;;;38.85;;
57824;SDS011;43912;44.188;21.094;2023-03-01T00:41:56;61.80;;;40.88;;
57824;SDS011;43912;44.188;21.094;2023-03-01T00:44:22;62.38;;;42.50;;
57824;SDS011;43912;44.188;21.094;2023-03-01T00:46:49;48.90;;;33.55;;
57824;SDS011;43912;44.188;21.094;2023-03-01T00:49:15;48.45;;;32.55;;
57824;SDS011;43912;44.188;21.094;2023-03-01T00:51:41;45.88;;;31.27;;
57824;SDS011;43912;44.188;21.094;2023-03-01T00:54:07;48.83;;;31.45;;
57824;SDS011;43912;44.188;21.094;2023-03-01T00:56:34;44.47;;;29.92;;
57824;SDS011;43912;44.188;21.094;2023-03-01T00:59:00;59.22;;;36.78;;
57824;SDS011;43912;44.188;21.094;2023-03-01T01:01:28;53.15;;;34.85;;
57824;SDS011;43912;44.188;21.094;2023-03-01T01:06:24;52.75;;;34.22;;
57824;SDS011;43912;44.188;21.094;2023-03-01T01:08:51;49.97;;;32.33;;
57824;SDS011;43912;44.188;21.094;2023-03-01T01:11:18;42.42;;;28.35;;
57824;SDS011;43912;44.188;21.094;2023-03-01T01:13:45;41.30;;;28.17;;
57824;SDS011;43912;44.188;21.094;2023-03-01T01:16:11;42.85;;;28.67;;
57824;SDS011;43912;44.188;21.094;2023-03-01T01:18:38;41.22;;;27.88;;
57824;SDS011;43912;44.188;21.094;2023-03-01T01:21:08;44.92;;;28.65;;
57824;SDS011;43912;44.188;21.094;2023-03-01T01:23:34;121.65;;;72.63;;
57824;SDS011;43912;44.188;21.094;2023-03-01T01:26:05;47.58;;;32.10;;
57824;SDS011;43912;44.188;21.094;2023-03-01T01:28:32;48.35;;;33.15;;
57824;SDS011;43912;44.188;21.094;2023-03-01T01:30:58;49.42;;;32.50;;
57824;SDS011;43912;44.188;21.094;2023-03-01T01:33:24;48.08;;;32.28;;
57824;SDS011;43912;44.188;21.094;2023-03-01T01:35:50;46.53;;;30.00;;
57824;SDS011;43912;44.188;21.094;2023-03-01T01:38:16;42.22;;;28.92;;
57824;SDS011;43912;44.188;21.094;2023-03-01T01:40:43;40.75;;;28.52;;
57824;SDS011;43912;44.188;21.094;2023-03-01T01:43:14;45.70;;;29.48;;
57824;SDS011;43912;44.188;21.094;2023-03-01T01:45:42;46.90;;;32.47;;
57824;SDS011;43912;44.188;21.094;2023-03-01T01:48:10;43.38;;;28.67;;
57824;SDS011;43912;44.188;21.094;2023-03-01T01:50:39;45.15;;;28.95;;
57824;SDS011;43912;44.188;21.094;2023-03-01T01:53:06;44.03;;;28.55;;
57824;SDS011;43912;44.188;21.094;2023-03-01T01:55:35;42.55;;;28.50;;
57824;SDS011;43912;44.188;21.094;2023-03-01T01:58:02;43.10;;;28.92;;
57824;SDS011;43912;44.188;21.094;2023-03-01T02:00:30;45.30;;;30.15;;
57824;SDS011;43912;44.188;21.094;2023-03-01T02:03:01;41.33;;;28.33;;
57824;SDS011;43912;44.188;21.094;2023-03-01T02:08:13;44.00;;;29.25;;
57824;SDS011;43912;44.188;21.094;2023-03-01T02:10:41;51.85;;;34.05;;
57824;SDS011;43912;44.188;21.094;2023-03-01T02:13:08;42.88;;;29.92;;
57824;SDS011;43912;44.188;21.094;2023-03-01T02:15:34;43.22;;;29.45;;
57824;SDS011;43912;44.188;21.094;2023-03-01T02:18:01;42.10;;;26.42;;
57824;SDS011;43912;44.188;21.094;2023-03-01T02:20:35;41.88;;;26.38;;
57824;SDS011;43912;44.188;21.094;2023-03-01T02:23:04;41.25;;;27.77;;
57824;SDS011;43912;44.188;21.094;2023-03-01T02:25:36;40.70;;;25.92;;
57824;SDS011;43912;44.188;21.094;2023-03-01T02:30:41;40.45;;;25.45;;
57824;SDS011;43912;44.188;21.094;2023-03-01T02:33:27;40.08;;;26.48;;
57824;SDS011;43912;44.188;21.094;2023-03-01T02:35:57;40.33;;;26.85;;
57824;SDS011;43912;44.188;21.094;2023-03-01T02:38:24;43.35;;;28.17;;
57824;SDS011;43912;44.188;21.094;2023-03-01T02:40:50;41.53;;;27.83;;
57824;SDS011;43912;44.188;21.094;2023-03-01T02:43:17;49.45;;;30.48;;
57824;SDS011;43912;44.188;21.094;2023-03-01T02:45:49;48.53;;;31.30;;
57824;SDS011;43912;44.188;21.094;2023-03-01T02:48:15;48.92;;;30.10;;
57824;SDS011;43912;44.188;21.094;2023-03-01T02:55:55;324.70;;;283.70;;
57824;SDS011;43912;44.188;21.094;2023-03-01T02:58:21;101.47;;;75.47;;
57824;SDS011;43912;44.188;21.094;2023-03-01T03:00:47;59.85;;;38.53;;
57824;SDS011;43912;44.188;21.094;2023-03-01T03:03:15;51.90;;;32.53;;
57824;SDS011;43912;44.188;21.094;2023-03-01T03:05:41;49.70;;;30.58;;
57824;SDS011;43912;44.188;21.094;2023-03-01T03:08:07;50.53;;;30.13;;
57824;SDS011;43912;44.188;21.094;2023-03-01T03:10:35;55.45;;;34.80;;
57824;SDS011;43912;44.188;21.094;2023-03-01T03:13:05;58.00;;;35.42;;
57824;SDS011;43912;44.188;21.094;2023-03-01T03:15:32;56.00;;;34.47;;
57824;SDS011;43912;44.188;21.094;2023-03-01T03:18:02;55.53;;;33.75;;
57824;SDS011;43912;44.188;21.094;2023-03-01T03:20:28;53.70;;;34.33;;
57824;SDS011;43912;44.188;21.094;2023-03-01T03:22:55;55.17;;;35.22;;
57824;SDS011;43912;44.188;21.094;2023-03-01T03:25:23;49.95;;;31.58;;
57824;SDS011;43912;44.188;21.094;2023-03-01T03:27:50;48.83;;;31.80;;
57824;SDS011;43912;44.188;21.094;2023-03-01T03:30:21;43.15;;;28.55;;
57824;SDS011;43912;44.188;21.094;2023-03-01T03:32:48;46.80;;;32.85;;
57824;SDS011;43912;44.188;21.094;2023-03-01T03:35:24;45.50;;;30.08;;
57824;SDS011;43912;44.188;21.094;2023-03-01T03:37:50;49.03;;;32.10;;
57824;SDS011;43912;44.188;21.094;2023-03-01T03:40:34;48.15;;;29.20;;
57824;SDS011;43912;44.188;21.094;2023-03-01T03:43:16;42.47;;;29.13;;
57824;SDS011;43912;44.188;21.094;2023-03-01T03:45:46;40.95;;;25.90;;
57824;SDS011;43912;44.188;21.094;2023-03-01T03:48:12;43.72;;;27.08;;
57824;SDS011;43912;44.188;21.094;2023-03-01T03:50:39;40.10;;;25.80;;
57824;SDS011;43912;44.188;21.094;2023-03-01T03:53:07;43.75;;;26.02;;
57824;SDS011;43912;44.188;21.094;2023-03-01T03:55:33;43.22;;;27.48;;
57824;SDS011;43912;44.188;21.094;2023-03-01T03:58:01;48.10;;;29.00;;
57824;SDS011;43912;44.188;21.094;2023-03-01T04:00:31;46.22;;;26.80;;
57824;SDS011;43912;44.188;21.094;2023-03-01T04:02:58;46.83;;;27.98;;
57824;SDS011;43912;44.188;21.094;2023-03-01T04:05:24;46.08;;;26.73;;
57824;SDS011;43912;44.188;21.094;2023-03-01T04:07:50;49.22;;;29.35;;
57824;SDS011;43912;44.188;21.094;2023-03-01T04:10:26;45.35;;;27.42;;
57824;SDS011;43912;44.188;21.094;2023-03-01T04:12:52;46.70;;;27.83;;
57824;SDS011;43912;44.188;21.094;2023-03-01T04:15:21;52.55;;;28.45;;
57824;SDS011;43912;44.188;21.094;2023-03-01T04:17:49;52.58;;;29.52;;
57824;SDS011;43912;44.188;21.094;2023-03-01T04:20:18;51.58;;;30.02;;
57824;SDS011;43912;44.188;21.094;2023-03-01T04:22:50;51.20;;;29.38;;
57824;SDS011;43912;44.188;21.094;2023-03-01T04:25:16;52.30;;;29.08;;
57824;SDS011;43912;44.188;21.094;2023-03-01T04:30:41;54.85;;;29.10;;
57824;SDS011;43912;44.188;21.094;2023-03-01T04:33:08;60.47;;;34.15;;
57824;SDS011;43912;44.188;21.094;2023-03-01T04:35:35;54.13;;;30.80;;
57824;SDS011;43912;44.188;21.094;2023-03-01T04:38:02;57.53;;;32.40;;
57824;SDS011;43912;44.188;21.094;2023-03-01T04:40:29;56.95;;;32.45;;
57824;SDS011;43912;44.188;21.094;2023-03-01T04:42:55;57.03;;;31.23;;
57824;SDS011;43912;44.188;21.094;2023-03-01T04:45:21;56.85;;;31.75;;
57824;SDS011;43912;44.188;21.094;2023-03-01T04:47:47;54.70;;;30.13;;
57824;SDS011;43912;44.188;21.094;2023-03-01T04:50:14;59.65;;;30.52;;
57824;SDS011;43912;44.188;21.094;2023-03-01T04:52:40;56.15;;;31.42;;
57824;SDS011;43912;44.188;21.094;2023-03-01T04:55:07;56.05;;;32.17;;
57824;SDS011;43912;44.188;21.094;2023-03-01T04:57:33;56.83;;;31.73;;
57824;SDS011;43912;44.188;21.094;2023-03-01T04:59:59;59.65;;;33.60;;
57824;SDS011;43912;44.188;21.094;2023-03-01T05:02:25;58.78;;;33.72;;
57824;SDS011;43912;44.188;21.094;2023-03-01T05:04:51;57.95;;;34.70;;
57824;SDS011;43912;44.188;21.094;2023-03-01T05:07:22;61.45;;;34.85;;
57824;SDS011;43912;44.188;21.094;2023-03-01T05:09:49;62.20;;;37.38;;
57824;SDS011;43912;44.188;21.094;2023-03-01T05:12:16;56.55;;;34.20;;
57824;SDS011;43912;44.188;21.094;2023-03-01T05:14:42;62.45;;;33.67;;
57824;SDS011;43912;44.188;21.094;2023-03-01T05:17:08;60.33;;;37.38;;
57824;SDS011;43912;44.188;21.094;2023-03-01T05:19:34;61.25;;;38.47;;
57824;SDS011;43912;44.188;21.094;2023-03-01T05:22:00;62.95;;;40.85;;
57824;SDS011;43912;44.188;21.094;2023-03-01T05:24:26;61.35;;;37.85;;
57824;SDS011;43912;44.188;21.094;2023-03-01T05:26:53;71.78;;;49.92;;
57824;SDS011;43912;44.188;21.094;2023-03-01T05:29:19;63.30;;;40.88;;
57824;SDS011;43912;44.188;21.094;2023-03-01T05:31:51;60.03;;;39.33;;
57824;SDS011;43912;44.188;21.094;2023-03-01T05:34:18;56.45;;;32.88;;
57824;SDS011;43912;44.188;21.094;2023-03-01T05:36:44;51.70;;;32.45;;
57824;SDS011;43912;44.188;21.094;2023-03-01T05:39:10;55.45;;;34.03;;
57824;SDS011;43912;44.188;21.094;2023-03-01T05:41:36;53.42;;;32.08;;
57824;SDS011;43912;44.188;21.094;2023-03-01T05:44:02;52.60;;;31.33;;
57824;SDS011;43912;44.188;21.094;2023-03-01T05:46:29;54.58;;;32.00;;
57824;SDS011;43912;44.188;21.094;2023-03-01T05:48:55;54.63;;;32.67;;
57824;SDS011;43912;44.188;21.094;2023-03-01T05:51:21;51.22;;;32.13;;
57824;SDS011;43912;44.188;21.094;2023-03-01T05:53:47;56.58;;;37.33;;
57824;SDS011;43912;44.188;21.094;2023-03-01T05:56:13;59.20;;;36.22;;
57824;SDS011;43912;44.188;21.094;2023-03-01T05:58:39;54.58;;;34.83;;
57824;SDS011;43912;44.188;21.094;2023-03-01T06:01:10;58.95;;;37.83;;
57824;SDS011;43912;44.188;21.094;2023-03-01T06:03:36;55.00;;;34.50;;
57824;SDS011;43912;44.188;21.094;2023-03-01T06:06:02;50.47;;;31.60;;
57824;SDS011;43912;44.188;21.094;2023-03-01T06:08:28;50.67;;;31.30;;
57824;SDS011;43912;44.188;21.094;2023-03-01T06:10:54;52.63;;;35.10;;
57824;SDS011;43912;44.188;21.094;2023-03-01T06:16:24;50.67;;;31.80;;
57824;SDS011;43912;44.188;21.094;2023-03-01T06:18:50;48.63;;;28.88;;
57824;SDS011;43912;44.188;21.094;2023-03-01T06:21:16;52.63;;;34.28;;
57824;SDS011;43912;44.188;21.094;2023-03-01T06:23:43;51.17;;;34.80;;
57824;SDS011;43912;44.188;21.094;2023-03-01T06:26:09;53.95;;;36.70;;
57824;SDS011;43912;44.188;21.094;2023-03-01T06:28:36;44.10;;;28.20;;
57824;SDS011;43912;44.188;21.094;2023-03-01T06:31:02;39.10;;;24.92;;
57824;SDS011;43912;44.188;21.094;2023-03-01T06:33:28;45.47;;;27.40;;
57824;SDS011;43912;44.188;21.094;2023-03-01T06:35:54;38.90;;;26.83;;
57824;SDS011;43912;44.188;21.094;2023-03-01T06:38:22;38.92;;;26.23;;
57824;SDS011;43912;44.188;21.094;2023-03-01T06:40:52;42.92;;;29.85;;
57824;SDS011;43912;44.188;21.094;2023-03-01T06:43:19;40.85;;;26.77;;
57824;SDS011;43912;44.188;21.094;2023-03-01T06:45:45;40.47;;;26.17;;
57824;SDS011;43912;44.188;21.094;2023-03-01T06:50:37;41.33;;;26.92;;
57824;SDS011;43912;44.188;21.094;2023-03-01T06:53:03;44.92;;;27.95;;
57824;SDS011;43912;44.188;21.094;2023-03-01T06:55:33;38.00;;;24.88;;
57824;SDS011;43912;44.188;21.094;2023-03-01T06:57:59;40.28;;;26.42;;
57824;SDS011;43912;44.188;21.094;2023-03-01T07:00:26;37.38;;;25.20;;
57824;SDS011;43912;44.188;21.094;2023-03-01T07:02:52;43.20;;;28.70;;
57824;SDS011;43912;44.188;21.094;2023-03-01T07:08:05;40.67;;;27.48;;
57824;SDS011;43912;44.188;21.094;2023-03-01T07:10:31;45.10;;;30.85;;
57824;SDS011;43912;44.188;21.094;2023-03-01T07:12:57;44.13;;;33.22;;
57824;SDS011;43912;44.188;21.094;2023-03-01T07:15:24;47.67;;;32.80;;
57824;SDS011;43912;44.188;21.094;2023-03-01T07:17:50;44.33;;;30.33;;
57824;SDS011;43912;44.188;21.094;2023-03-01T07:20:17;56.42;;;39.92;;
57824;SDS011;43912;44.188;21.094;2023-03-01T07:22:43;52.75;;;38.17;;
57824;SDS011;43912;44.188;21.094;2023-03-01T07:25:10;51.80;;;37.67;;
57824;SDS011;43912;44.188;21.094;2023-03-01T07:27:36;53.35;;;37.80;;
57824;SDS011;43912;44.188;21.094;2023-03-01T07:30:02;56.88;;;40.22;;
57824;SDS011;43912;44.188;21.094;2023-03-01T07:32:29;56.00;;;41.40;;
57824;SDS011;43912;44.188;21.094;2023-03-01T07:34:55;49.83;;;36.47;;
57824;SDS011;43912;44.188;21.094;2023-03-01T07:37:21;53.85;;;39.33;;
57824;SDS011;43912;44.188;21.094;2023-03-01T07:39:47;50.47;;;39.72;;
57824;SDS011;43912;44.188;21.094;2023-03-01T07:42:13;46.92;;;34.13;;
57824;SDS011;43912;44.188;21.094;2023-03-01T07:44:39;51.15;;;36.20;;
57824;SDS011;43912;44.188;21.094;2023-03-01T07:47:05;46.00;;;34.35;;
57824;SDS011;43912;44.188;21.094;2023-03-01T07:49:31;47.03;;;34.78;;
57824;SDS011;43912;44.188;21.094;2023-03-01T07:51:57;45.17;;;34.70;;
57824;SDS011;43912;44.188;21.094;2023-03-01T07:54:23;49.33;;;36.63;;
57824;SDS011;43912;44.188;21.094;2023-03-01T07:56:49;46.97;;;37.10;;
57824;SDS011;43912;44.188;21.094;2023-03-01T07:59:15;50.15;;;40.70;;
57824;SDS011;43912;44.188;21.094;2023-03-01T08:01:41;53.67;;;41.65;;
57824;SDS011;43912;44.188;21.094;2023-03-01T08:04:08;49.55;;;40.10;;
57824;SDS011;43912;44.188;21.094;2023-03-01T08:06:34;52.40;;;41.03;;
57824;SDS011;43912;44.188;21.094;2023-03-01T08:09:01;46.15;;;38.22;;
57824;SDS011;43912;44.188;21.094;2023-03-01T08:11:27;46.75;;;37.72;;
57824;SDS011;43912;44.188;21.094;2023-03-01T08:13:54;46.45;;;39.83;;
57824;SDS011;43912;44.188;21.094;2023-03-01T08:16:20;55.60;;;43.38;;
57824;SDS011;43912;44.188;21.094;2023-03-01T08:18:46;57.42;;;47.03;;
57824;SDS011;43912;44.188;21.094;2023-03-01T08:21:13;57.22;;;45.35;;
57824;SDS011;43912;44.188;21.094;2023-03-01T08:23:40;65.10;;;58.78;;
57824;SDS011;43912;44.188;21.094;2023-03-01T08:26:16;53.20;;;44.42;;
57824;SDS011;43912;44.188;21.094;2023-03-01T08:28:43;50.47;;;40.83;;
57824;SDS011;43912;44.188;21.094;2023-03-01T08:31:13;60.05;;;46.47;;
57824;SDS011;43912;44.188;21.094;2023-03-01T08:33:39;67.10;;;48.95;;
57824;SDS011;43912;44.188;21.094;2023-03-01T08:36:05;69.65;;;52.88;;
57824;SDS011;43912;44.188;21.094;2023-03-01T08:38:32;56.80;;;46.80;;
57824;SDS011;43912;44.188;21.094;2023-03-01T08:41:02;57.42;;;46.55;;
57824;SDS011;43912;44.188;21.094;2023-03-01T08:43:28;58.50;;;46.95;;
57824;SDS011;43912;44.188;21.094;2023-03-01T08:45:54;74.88;;;59.35;;
57824;SDS011;43912;44.188;21.094;2023-03-01T08:48:20;76.28;;;62.35;;
57824;SDS011;43912;44.188;21.094;2023-03-01T08:50:46;57.38;;;48.22;;
57824;SDS011;43912;44.188;21.094;2023-03-01T08:53:13;60.60;;;51.47;;
57824;SDS011;43912;44.188;21.094;2023-03-01T08:55:39;60.08;;;49.13;;
57824;SDS011;43912;44.188;21.094;2023-03-01T08:58:05;58.53;;;50.55;;
57824;SDS011;43912;44.188;21.094;2023-03-01T09:00:31;55.30;;;46.47;;
57824;SDS011;43912;44.188;21.094;2023-03-01T09:02:59;59.95;;;47.55;;
57824;SDS011;43912;44.188;21.094;2023-03-01T09:05:25;48.20;;;38.05;;
57824;SDS011;43912;44.188;21.094;2023-03-01T09:07:51;50.83;;;41.05;;
57824;SDS011;43912;44.188;21.094;2023-03-01T09:10:17;53.10;;;43.53;;
57824;SDS011;43912;44.188;21.094;2023-03-01T09:12:43;52.55;;;45.13;;
57824;SDS011;43912;44.188;21.094;2023-03-01T09:15:10;49.35;;;43.95;;
57824;SDS011;43912;44.188;21.094;2023-03-01T09:17:36;41.75;;;35.78;;
57824;SDS011;43912;44.188;21.094;2023-03-01T09:20:02;35.55;;;31.70;;
57824;SDS011;43912;44.188;21.094;2023-03-01T09:22:30;34.53;;;30.83;;
57824;SDS011;43912;44.188;21.094;2023-03-01T09:24:56;38.22;;;34.22;;
57824;SDS011;43912;44.188;21.094;2023-03-01T09:27:24;47.20;;;42.17;;
57824;SDS011;43912;44.188;21.094;2023-03-01T09:29:50;45.05;;;40.28;;
57824;SDS011;43912;44.188;21.094;2023-03-01T09:32:16;36.05;;;30.33;;
57824;SDS011;43912;44.188;21.094;2023-03-01T09:34:42;39.58;;;35.20;;
57824;SDS011;43912;44.188;21.094;2023-03-01T09:37:28;38.03;;;33.67;;
57824;SDS011;43912;44.188;21.094;2023-03-01T09:39:54;40.35;;;35.70;;
57824;SDS011;43912;44.188;21.094;2023-03-01T09:42:20;39.60;;;35.38;;
57824;SDS011;43912;44.188;21.094;2023-03-01T09:45:06;38.92;;;33.40;;
57824;SDS011;43912;44.188;21.094;2023-03-01T09:47:36;36.78;;;32.78;;
57824;SDS011;43912;44.188;21.094;2023-03-01T09:50:14;36.60;;;32.78;;
57824;SDS011;43912;44.188;21.094;2023-03-01T09:55:08;41.13;;;32.25;;
57824;SDS011;43912;44.188;21.094;2023-03-01T09:57:38;19.05;;;16.85;;
57824;SDS011;43912;44.188;21.094;2023-03-01T10:02:52;21.95;;;18.58;;
57824;SDS011;43912;44.188;21.094;2023-03-01T10:05:31;21.07;;;18.17;;
57824;SDS011;43912;44.188;21.094;2023-03-01T10:10:46;21.20;;;17.77;;
57824;SDS011;43912;44.188;21.094;2023-03-01T10:18:52;20.95;;;17.27;;
57824;SDS011;43912;44.188;21.094;2023-03-01T10:21:19;20.15;;;14.43;;
57824;SDS011;43912;44.188;21.094;2023-03-01T10:23:45;21.08;;;19.08;;
57824;SDS011;43912;44.188;21.094;2023-03-01T10:26:22;26.92;;;23.25;;
57824;SDS011;43912;44.188;21.094;2023-03-01T10:28:59;24.02;;;18.60;;
57824;SDS011;43912;44.188;21.094;2023-03-01T10:31:27;17.98;;;12.50;;
57824;SDS011;43912;44.188;21.094;2023-03-01T10:34:02;14.23;;;10.63;;
57824;SDS011;43912;44.188;21.094;2023-03-01T10:36:28;15.07;;;10.23;;
57824;SDS011;43912;44.188;21.094;2023-03-01T10:38:58;17.70;;;13.50;;
57824;SDS011;43912;44.188;21.094;2023-03-01T10:41:27;15.82;;;11.10;;
57824;SDS011;43912;44.188;21.094;2023-03-01T10:43:55;14.52;;;10.75;;
57824;SDS011;43912;44.188;21.094;2023-03-01T10:46:23;13.68;;;9.43;;
57824;SDS011;43912;44.188;21.094;2023-03-01T10:49:06;14.60;;;10.50;;
57824;SDS011;43912;44.188;21.094;2023-03-01T10:51:32;14.40;;;10.32;;
57824;SDS011;43912;44.188;21.094;2023-03-01T10:53:58;15.63;;;10.80;;
57824;SDS011;43912;44.188;21.094;2023-03-01T10:56:24;14.30;;;11.02;;
57824;SDS011;43912;44.188;21.094;2023-03-01T11:01:29;13.82;;;10.00;;
57824;SDS011;43912;44.188;21.094;2023-03-01T11:04:09;17.50;;;10.73;;
57824;SDS011;43912;44.188;21.094;2023-03-01T11:06:39;13.35;;;10.07;;
57824;SDS011;43912;44.188;21.094;2023-03-01T11:11:41;13.77;;;10.98;;
57824;SDS011;43912;44.188;21.094;2023-03-01T11:14:24;13.73;;;10.48;;
57824;SDS011;43912;44.188;21.094;2023-03-01T11:19:28;15.05;;;11.30;;
57824;SDS011;43912;44.188;21.094;2023-03-01T11:22:02;13.60;;;10.75;;
57824;SDS011;43912;44.188;21.094;2023-03-01T11:24:44;12.88;;;10.00;;
57824;SDS011;43912;44.188;21.094;2023-03-01T11:32:35;15.82;;;12.63;;
57824;SDS011;43912;44.188;21.094;2023-03-01T11:35:13;15.57;;;11.38;;
57824;SDS011;43912;44.188;21.094;2023-03-01T11:40:49;14.52;;;10.82;;
57824;SDS011;43912;44.188;21.094;2023-03-01T11:43:04;16.98;;;11.52;;
57824;SDS011;43912;44.188;21.094;2023-03-01T12:01:10;17.73;;;13.20;;
57824;SDS011;43912;44.188;21.094;2023-03-01T12:06:35;17.55;;;13.55;;
57824;SDS011;43912;44.188;21.094;2023-03-01T12:14:31;22.33;;;13.70;;
57824;SDS011;43912;44.188;21.094;2023-03-01T12:37:59;17.90;;;12.60;;
57824;SDS011;43912;44.188;21.094;2023-03-01T12:40:43;20.73;;;14.85;;
57824;SDS011;43912;44.188;21.094;2023-03-01T12:43:27;15.50;;;11.55;;
57824;SDS011;43912;44.188;21.094;2023-03-01T12:46:00;16.00;;;12.10;;
57824;SDS011;43912;44.188;21.094;2023-03-01T12:51:16;17.75;;;11.57;;
57824;SDS011;43912;44.188;21.094;2023-03-01T12:53:50;21.67;;;12.95;;
57824;SDS011;43912;44.188;21.094;2023-03-01T12:58:55;18.48;;;14.13;;
57824;SDS011;43912;44.188;21.094;2023-03-01T13:03:59;11.02;;;7.03;;
57824;SDS011;43912;44.188;21.094;2023-03-01T13:11:35;8.75;;;4.57;;
57824;SDS011;43912;44.188;21.094;2023-03-01T13:16:46;11.43;;;5.45;;
57824;SDS011;43912;44.188;21.094;2023-03-01T13:19:17;11.52;;;4.95;;
57824;SDS011;43912;44.188;21.094;2023-03-01T13:21:44;9.00;;;4.65;;
57824;SDS011;43912;44.188;21.094;2023-03-01T13:29:50;11.20;;;5.68;;
57824;SDS011;43912;44.188;21.094;2023-03-01T13:34:58;11.38;;;6.63;;
57824;SDS011;43912;44.188;21.094;2023-03-01T13:37:29;11.82;;;6.60;;
57824;SDS011;43912;44.188;21.094;2023-03-01T13:39:56;14.15;;;10.50;;
57824;SDS011;43912;44.188;21.094;2023-03-01T13:44:58;11.15;;;6.38;;
57824;SDS011;43912;44.188;21.094;2023-03-01T13:47:25;9.85;;;5.50;;
57824;SDS011;43912;44.188;21.094;2023-03-01T13:50:02;9.55;;;5.93;;
57824;SDS011;43912;44.188;21.094;2023-03-01T13:55:16;11.98;;;7.28;;
57824;SDS011;43912;44.188;21.094;2023-03-01T13:57:50;10.80;;;4.75;;
57824;SDS011;43912;44.188;21.094;2023-03-01T14:03:02;13.52;;;9.23;;
57824;SDS011;43912;44.188;21.094;2023-03-01T14:05:29;16.00;;;8.90;;
57824;SDS011;43912;44.188;21.094;2023-03-01T14:07:55;12.05;;;6.07;;
57824;SDS011;43912;44.188;21.094;2023-03-01T14:10:22;13.52;;;9.35;;
57824;SDS011;43912;44.188;21.094;2023-03-01T14:15:31;10.95;;;7.10;;
57824;SDS011;43912;44.188;21.094;2023-03-01T14:20:46;9.30;;;5.35;;
57824;SDS011;43912;44.188;21.094;2023-03-01T14:23:20;16.48;;;11.15;;
57824;SDS011;43912;44.188;21.094;2023-03-01T14:25:50;13.63;;;9.27;;
57824;SDS011;43912;44.188;21.094;2023-03-01T14:28:26;12.35;;;7.00;;
57824;SDS011;43912;44.188;21.094;2023-03-01T14:30:54;10.02;;;6.90;;
57824;SDS011;43912;44.188;21.094;2023-03-01T14:33:25;12.15;;;8.55;;
57824;SDS011;43912;44.188;21.094;2023-03-01T14:38:37;13.15;;;8.40;;
57824;SDS011;43912;44.188;21.094;2023-03-01T14:41:06;16.48;;;11.90;;
57824;SDS011;43912;44.188;21.094;2023-03-01T14:43:33;15.68;;;9.95;;
57824;SDS011;43912;44.188;21.094;2023-03-01T14:45:59;9.25;;;5.90;;
57824;SDS011;43912;44.188;21.094;2023-03-01T14:48:26;10.98;;;7.32;;
57824;SDS011;43912;44.188;21.094;2023-03-01T14:50:53;17.25;;;11.73;;
57824;SDS011;43912;44.188;21.094;2023-03-01T14:53:20;14.77;;;8.73;;
57824;SDS011;43912;44.188;21.094;2023-03-01T14:55:48;14.15;;;9.48;;
57824;SDS011;43912;44.188;21.094;2023-03-01T14:58:18;14.43;;;8.05;;
57824;SDS011;43912;44.188;21.094;2023-03-01T15:00:52;12.40;;;7.00;;
57824;SDS011;43912;44.188;21.094;2023-03-01T15:03:32;13.18;;;8.35;;
57824;SDS011;43912;44.188;21.094;2023-03-01T15:06:03;15.73;;;10.60;;
57824;SDS011;43912;44.188;21.094;2023-03-01T15:08:33;21.73;;;15.45;;
57824;SDS011;43912;44.188;21.094;2023-03-01T15:13:29;16.17;;;11.95;;
57824;SDS011;43912;44.188;21.094;2023-03-01T15:18:34;16.23;;;10.90;;
57824;SDS011;43912;44.188;21.094;2023-03-01T15:21:13;17.40;;;11.90;;
57824;SDS011;43912;44.188;21.094;2023-03-01T15:23:40;16.73;;;10.48;;
57824;SDS011;43912;44.188;21.094;2023-03-01T15:26:16;16.17;;;11.05;;
57824;SDS011;43912;44.188;21.094;2023-03-01T15:28:49;13.32;;;7.65;;
57824;SDS011;43912;44.188;21.094;2023-03-01T15:31:23;15.25;;;10.73;;
57824;SDS011;43912;44.188;21.094;2023-03-01T15:33:49;15.48;;;9.80;;
57824;SDS011;43912;44.188;21.094;2023-03-01T15:39:01;31.48;;;20.02;;
57824;SDS011;43912;44.188;21.094;2023-03-01T15:41:32;20.92;;;13.90;;
57824;SDS011;43912;44.188;21.094;2023-03-01T15:43:59;15.60;;;11.18;;
57824;SDS011;43912;44.188;21.094;2023-03-01T15:46:32;18.63;;;13.00;;
57824;SDS011;43912;44.188;21.094;2023-03-01T15:49:02;24.90;;;17.35;;
57824;SDS011;43912;44.188;21.094;2023-03-01T15:51:33;21.15;;;13.35;;
57824;SDS011;43912;44.188;21.094;2023-03-01T15:54:01;36.22;;;24.23;;
57824;SDS011;43912;44.188;21.094;2023-03-01T15:56:27;21.27;;;13.20;;
57824;SDS011;43912;44.188;21.094;2023-03-01T15:58:56;25.92;;;17.85;;
57824;SDS011;43912;44.188;21.094;2023-03-01T16:01:23;30.20;;;23.58;;
57824;SDS011;43912;44.188;21.094;2023-03-01T16:03:49;43.65;;;37.35;;
57824;SDS011;43912;44.188;21.094;2023-03-01T16:06:15;37.63;;;32.92;;
57824;SDS011;43912;44.188;21.094;2023-03-01T16:08:41;45.55;;;37.40;;
57824;SDS011;43912;44.188;21.094;2023-03-01T16:11:14;33.88;;;29.00;;
57824;SDS011;43912;44.188;21.094;2023-03-01T16:13:42;17.10;;;14.52;;
57824;SDS011;43912;44.188;21.094;2023-03-01T16:16:09;19.60;;;16.30;;
57824;SDS011;43912;44.188;21.094;2023-03-01T16:18:37;15.70;;;10.85;;
57824;SDS011;43912;44.188;21.094;2023-03-01T16:21:04;17.75;;;11.68;;
57824;SDS011;43912;44.188;21.094;2023-03-01T16:23:31;17.35;;;13.30;;
57824;SDS011;43912;44.188;21.094;2023-03-01T16:26:00;20.30;;;15.15;;
57824;SDS011;43912;44.188;21.094;2023-03-01T16:28:26;25.15;;;17.30;;
57824;SDS011;43912;44.188;21.094;2023-03-01T16:30:52;19.15;;;12.88;;
57824;SDS011;43912;44.188;21.094;2023-03-01T16:33:19;76.35;;;49.95;;
57824;SDS011;43912;44.188;21.094;2023-03-01T16:35:45;84.50;;;58.97;;
57824;SDS011;43912;44.188;21.094;2023-03-01T16:38:11;75.30;;;55.88;;
57824;SDS011;43912;44.188;21.094;2023-03-01T16:40:37;50.05;;;39.80;;
57824;SDS011;43912;44.188;21.094;2023-03-01T16:43:03;56.78;;;44.03;;
57824;SDS011;43912;44.188;21.094;2023-03-01T16:45:34;45.75;;;40.35;;
57824;SDS011;43912;44.188;21.094;2023-03-01T16:48:00;33.38;;;22.02;;